createdAt,value
2019-02-10T00:04:00.442Z,5.13
2019-02-10T00:06:24.334Z,4.93
2019-02-10T00:08:34.392Z,5.00
2019-02-10T00:10:50.887Z,4.70
2019-02-10T00:15:17.014Z,5.37
2019-02-10T00:17:41.994Z,5.47
2019-02-10T00:19:58.190Z,4.83
2019-02-10T00:22:14.416Z,5.13
2019-02-10T00:24:33.694Z,5.17
2019-02-10T00:26:49.825Z,4.90
2019-02-10T00:29:06.131Z,5.67
2019-02-10T00:31:24.053Z,5.50
2019-02-10T00:33:40.143Z,5.17
2019-02-10T00:35:56.487Z,5.63
2019-02-10T00:38:13.143Z,4.97
2019-02-10T00:40:29.333Z,5.00
2019-02-10T00:42:45.456Z,6.33
2019-02-10T00:45:01.832Z,6.13
2019-02-10T00:47:18.029Z,6.07
2019-02-10T00:49:34.341Z,5.47
2019-02-10T00:51:57.938Z,5.30
2019-02-10T00:54:02.421Z,6.00
2019-02-10T00:56:09.979Z,6.17
2019-02-10T01:01:09.449Z,4.33
2019-02-10T01:03:25.555Z,5.33
2019-02-10T01:05:41.742Z,5.07
2019-02-10T01:07:57.869Z,4.73
2019-02-10T01:10:14.548Z,4.27
2019-02-10T01:12:49.993Z,5.77
2019-02-10T01:15:03.467Z,5.63
2019-02-10T01:17:22.730Z,5.73
2019-02-10T01:19:38.621Z,4.57
2019-02-10T01:21:57.615Z,4.97
2019-02-10T01:24:14.443Z,5.40
2019-02-10T01:26:30.442Z,5.13
2019-02-10T01:28:46.935Z,4.70
2019-02-10T01:31:03.308Z,5.10
2019-02-10T01:33:21.480Z,5.00
2019-02-10T01:35:45.146Z,4.30
2019-02-10T01:38:02.307Z,4.73
2019-02-10T01:40:18.287Z,4.70
2019-02-10T01:42:34.585Z,4.97
2019-02-10T01:44:50.610Z,4.40
2019-02-10T01:47:07.247Z,4.70
2019-02-10T01:49:23.949Z,4.37
2019-02-10T01:51:38.661Z,4.77
2019-02-10T01:53:55.265Z,4.37
2019-02-10T01:56:11.440Z,5.33
2019-02-10T01:58:27.688Z,4.87
2019-02-10T02:00:43.876Z,5.00
2019-02-10T02:03:00.261Z,4.20
2019-02-10T02:05:19.524Z,4.30
2019-02-10T02:07:36.226Z,4.40
2019-02-10T02:09:52.805Z,5.33
2019-02-10T02:12:09.066Z,4.97
2019-02-10T02:14:25.543Z,4.20
2019-02-10T02:16:42.043Z,4.63
2019-02-10T02:18:57.985Z,4.67
2019-02-10T02:21:14.448Z,4.90
2019-02-10T02:23:30.265Z,4.20
2019-02-10T02:25:46.418Z,5.17
2019-02-10T02:28:02.955Z,4.40
2019-02-10T02:30:21.171Z,5.07
2019-02-10T02:34:51.998Z,4.37
2019-02-10T02:37:08.449Z,4.40
2019-02-10T02:39:24.729Z,4.80
2019-02-10T02:41:43.471Z,4.43
2019-02-10T02:43:59.714Z,4.83
2019-02-10T02:46:15.968Z,4.10
2019-02-10T02:48:32.261Z,4.90
2019-02-10T02:50:48.630Z,5.30
2019-02-10T02:53:05.241Z,4.97
2019-02-10T02:55:21.755Z,4.83
2019-02-10T02:57:38.167Z,5.27
2019-02-10T02:59:54.701Z,4.63
2019-02-10T03:02:11.431Z,4.33
2019-02-10T03:04:27.843Z,4.47
2019-02-10T03:06:47.630Z,5.03
2019-02-10T03:09:04.059Z,4.47
2019-02-10T03:11:20.413Z,4.37
2019-02-10T03:13:36.825Z,4.40
2019-02-10T03:15:41.410Z,4.47
2019-02-10T03:18:05.126Z,4.80
2019-02-10T03:20:21.318Z,4.60
2019-02-10T03:22:37.215Z,4.70
2019-02-10T03:24:53.022Z,4.33
2019-02-10T03:27:09.444Z,5.07
2019-02-10T03:29:26.893Z,4.83
2019-02-10T03:31:43.002Z,4.57
2019-02-10T03:33:58.925Z,3.73
2019-02-10T03:36:15.630Z,5.23
2019-02-10T03:38:20.236Z,5.40
2019-02-10T03:41:02.989Z,4.30
2019-02-10T03:43:26.627Z,4.70
2019-02-10T03:45:42.709Z,5.37
2019-02-10T03:47:58.555Z,4.60
2019-02-10T03:50:16.154Z,5.03
2019-02-10T03:52:20.689Z,4.80
2019-02-10T03:54:45.479Z,5.10
2019-02-10T03:59:44.432Z,4.93
2019-02-10T04:02:00.887Z,5.73
2019-02-10T04:04:14.280Z,5.27
2019-02-10T04:06:30.623Z,5.47
2019-02-10T04:08:46.868Z,5.60
2019-02-10T04:11:03.028Z,4.83
2019-02-10T04:13:22.404Z,5.97
2019-02-10T04:15:38.851Z,5.57
2019-02-10T04:17:56.223Z,6.07
2019-02-10T04:20:12.489Z,5.10
2019-02-10T04:22:29.078Z,5.43
2019-02-10T04:24:44.039Z,5.83
2019-02-10T04:27:07.680Z,5.97
2019-02-10T04:29:23.629Z,5.87
2019-02-10T04:31:40.288Z,5.50
2019-02-10T04:33:56.325Z,6.27
2019-02-10T04:36:12.497Z,5.73
2019-02-10T04:38:28.980Z,6.47
2019-02-10T04:40:46.012Z,6.77
2019-02-10T04:43:02.051Z,5.80
2019-02-10T04:45:18.261Z,5.37
2019-02-10T04:47:37.814Z,6.93
2019-02-10T04:49:55.276Z,5.90
2019-02-10T04:52:11.981Z,6.40
2019-02-10T04:54:34.097Z,6.60
2019-02-10T04:56:50.648Z,5.90
2019-02-10T04:59:07.252Z,6.17
2019-02-10T05:01:23.491Z,6.40
2019-02-10T05:03:39.767Z,6.43
2019-02-10T05:05:56.139Z,6.83
2019-02-10T05:08:12.381Z,6.57
2019-02-10T05:10:28.981Z,6.03
2019-02-10T05:12:45.241Z,6.40
2019-02-10T05:15:03.176Z,7.13
2019-02-10T05:17:19.460Z,6.80
2019-02-10T05:19:36.108Z,6.00
2019-02-10T05:21:52.492Z,6.87
2019-02-10T05:24:08.960Z,6.43
2019-02-10T05:26:29.081Z,6.53
2019-02-10T05:28:45.341Z,6.97
2019-02-10T05:31:01.645Z,6.63
2019-02-10T05:33:18.022Z,7.13
2019-02-10T05:35:36.861Z,6.63
2019-02-10T05:37:53.528Z,6.57
2019-02-10T05:40:09.668Z,7.33
2019-02-10T05:42:26.175Z,6.67
2019-02-10T05:44:42.544Z,6.33
2019-02-10T05:49:13.080Z,7.20
2019-02-10T05:51:33.626Z,7.67
2019-02-10T05:53:50.050Z,7.00
2019-02-10T05:56:08.962Z,6.70
2019-02-10T05:58:25.218Z,6.33
2019-02-10T06:00:41.280Z,7.07
2019-02-10T06:02:57.639Z,6.73
2019-02-10T06:05:16.426Z,6.97
2019-02-10T06:07:33.624Z,6.67
2019-02-10T06:09:49.511Z,6.80
2019-02-10T06:12:05.607Z,6.83
2019-02-10T06:14:21.977Z,6.23
2019-02-10T06:16:38.514Z,6.50
2019-02-10T06:18:54.483Z,5.77
2019-02-10T06:21:10.894Z,5.73
2019-02-10T06:23:27.140Z,6.27
2019-02-10T06:25:43.589Z,6.20
2019-02-10T06:28:02.289Z,6.67
2019-02-10T06:30:18.472Z,6.00
2019-02-10T06:32:34.650Z,6.37
2019-02-10T06:34:51.132Z,5.93
2019-02-10T06:37:07.548Z,5.93
2019-02-10T06:39:23.615Z,5.47
2019-02-10T06:41:39.959Z,5.87
2019-02-10T06:43:56.540Z,5.50
2019-02-10T06:46:13.157Z,5.60
2019-02-10T06:50:47.686Z,5.87
2019-02-10T06:52:52.196Z,5.97
2019-02-10T06:54:56.752Z,5.97
2019-02-10T06:57:20.572Z,6.60
2019-02-10T07:00:01.398Z,5.40
2019-02-10T07:02:10.467Z,6.00
2019-02-10T07:04:20.906Z,5.17
2019-02-10T07:06:44.527Z,5.13
2019-02-10T07:09:08.126Z,5.57
2019-02-10T07:11:24.321Z,5.37
2019-02-10T07:13:40.654Z,4.47
2019-02-10T07:15:57.119Z,4.07
2019-02-10T07:18:16.561Z,4.30
2019-02-10T07:20:35.744Z,4.37
2019-02-10T07:22:57.993Z,3.57
2019-02-10T07:25:14.724Z,3.17
2019-02-10T07:27:31.416Z,4.17
2019-02-10T07:29:47.945Z,4.57
2019-02-10T07:32:04.373Z,4.37
2019-02-10T07:34:20.882Z,4.20
2019-02-10T07:36:37.063Z,3.27
2019-02-10T07:38:53.425Z,3.10
2019-02-10T07:41:10.115Z,2.90
2019-02-10T07:43:26.796Z,2.97
2019-02-10T07:45:43.222Z,2.97
2019-02-10T07:47:59.661Z,2.53
2019-02-10T07:50:15.859Z,2.90
2019-02-10T07:52:32.610Z,2.33
2019-02-10T07:54:49.298Z,2.77
2019-02-10T07:57:05.795Z,2.20
2019-02-10T07:59:22.215Z,2.77
2019-02-10T08:01:38.687Z,2.43
2019-02-10T08:07:05.326Z,2.67
2019-02-10T08:09:21.570Z,2.30
2019-02-10T08:11:37.997Z,2.70
2019-02-10T08:13:53.980Z,3.00
2019-02-10T08:16:10.527Z,2.70
2019-02-10T08:18:31.300Z,2.97
2019-02-10T08:20:47.264Z,3.30
2019-02-10T08:23:08.186Z,3.70
2019-02-10T08:25:24.829Z,3.70
2019-02-10T08:27:41.117Z,3.67
2019-02-10T08:29:57.588Z,3.90
2019-02-10T08:32:13.978Z,3.00
2019-02-10T08:34:30.567Z,3.10
2019-02-10T08:36:48.110Z,3.20
2019-02-10T08:39:05.607Z,3.30
2019-02-10T08:41:22.361Z,3.27
2019-02-10T08:43:38.932Z,3.57
2019-02-10T08:45:55.173Z,2.60
2019-02-10T08:48:11.605Z,2.77
2019-02-10T08:50:29.437Z,3.20
2019-02-10T08:52:51.948Z,3.40
2019-02-10T08:55:05.077Z,2.57
2019-02-10T08:57:21.221Z,2.20
2019-02-10T08:59:56.798Z,2.90
2019-02-10T09:02:13.300Z,3.40
2019-02-10T09:04:29.813Z,3.40
2019-02-10T09:06:48.614Z,2.60
2019-02-10T09:09:05.006Z,2.90
2019-02-10T09:11:21.350Z,2.60
2019-02-10T09:13:37.541Z,2.73
2019-02-10T09:15:55.421Z,2.37
2019-02-10T09:18:11.344Z,2.30
2019-02-10T09:20:30.924Z,2.37
2019-02-10T09:23:06.338Z,2.43
2019-02-10T09:25:22.878Z,2.50
2019-02-10T09:27:40.668Z,2.30
2019-02-10T09:30:23.794Z,2.17
2019-02-10T09:32:49.200Z,1.93
2019-02-10T09:35:07.348Z,2.53
2019-02-10T09:37:24.355Z,2.57
2019-02-10T09:39:40.710Z,2.43
2019-02-10T09:42:07.220Z,2.33
2019-02-10T09:44:17.707Z,2.43
2019-02-10T09:46:34.004Z,2.70
2019-02-10T09:48:50.237Z,2.17
2019-02-10T09:51:09.234Z,2.40
2019-02-10T09:53:26.624Z,2.20
2019-02-10T09:55:43.025Z,2.20
2019-02-10T09:58:00.189Z,2.30
2019-02-10T10:00:23.966Z,2.70
2019-02-10T10:02:40.369Z,2.30
2019-02-10T10:04:56.333Z,2.50
2019-02-10T10:07:12.214Z,2.30
2019-02-10T10:12:11.126Z,2.30
2019-02-10T10:14:30.931Z,2.03
2019-02-10T10:16:45.275Z,2.57
2019-02-10T10:19:03.836Z,2.20
2019-02-10T10:21:20.388Z,2.20
2019-02-10T10:23:39.620Z,2.43
2019-02-10T10:25:56.152Z,2.13
2019-02-10T10:28:15.815Z,2.10
2019-02-10T10:30:31.733Z,2.60
2019-02-10T10:33:06.047Z,2.53
2019-02-10T10:35:29.676Z,2.40
2019-02-10T10:37:47.042Z,2.40
2019-02-10T10:40:03.507Z,1.90
2019-02-10T10:42:21.790Z,2.50
2019-02-10T10:44:26.019Z,2.20
2019-02-10T10:46:32.996Z,2.70
2019-02-10T10:48:37.881Z,2.50
2019-02-10T10:51:01.559Z,2.37
2019-02-10T10:53:25.259Z,2.50
2019-02-10T10:55:48.878Z,3.27
2019-02-10T10:57:56.652Z,3.10
2019-02-10T11:02:54.448Z,4.27
2019-02-10T11:05:31.773Z,5.23
2019-02-10T11:07:43.242Z,4.60
2019-02-10T11:09:59.641Z,3.87
2019-02-10T11:12:18.517Z,4.20
2019-02-10T11:14:35.220Z,4.57
2019-02-10T11:16:51.550Z,4.47
2019-02-10T11:19:07.929Z,3.57
2019-02-10T11:21:14.767Z,3.43
2019-02-10T11:23:38.403Z,3.53
2019-02-10T11:28:41.464Z,2.90
2019-02-10T11:31:05.878Z,3.77
2019-02-10T11:33:29.508Z,4.07
2019-02-10T11:35:47.373Z,3.83
2019-02-10T11:38:06.609Z,3.97
2019-02-10T11:40:22.944Z,3.47
2019-02-10T11:42:27.845Z,3.37
2019-02-10T11:44:34.127Z,4.73
2019-02-10T11:46:38.678Z,5.43
2019-02-10T11:57:08.347Z,7.83
2019-02-10T11:59:31.810Z,8.00
2019-02-10T12:02:29.207Z,10.63
2019-02-10T12:06:50.759Z,6.17
2019-02-10T12:09:07.446Z,6.07
2019-02-10T12:11:28.853Z,3.30
2019-02-10T12:13:45.301Z,3.97
2019-02-10T12:16:08.911Z,4.40
2019-02-10T12:21:16.439Z,1.83
2019-02-10T12:23:32.742Z,2.17
2019-02-10T12:25:50.161Z,2.13
2019-02-10T12:28:07.030Z,1.90
2019-02-10T12:30:24.348Z,1.90
2019-02-10T12:32:40.347Z,2.20
2019-02-10T12:35:04.014Z,2.27
2019-02-10T12:37:32.590Z,2.33
2019-02-10T12:39:48.294Z,2.27
2019-02-10T12:42:09.683Z,2.40
2019-02-10T12:44:14.224Z,1.70
2019-02-10T12:49:12.827Z,2.20
2019-02-10T12:51:31.554Z,1.60
2019-02-10T12:56:33.779Z,2.40
2019-02-10T12:58:48.592Z,2.00
2019-02-10T13:01:04.904Z,1.90
2019-02-10T13:03:22.108Z,1.93
2019-02-10T13:05:38.823Z,1.50
2019-02-10T13:08:05.185Z,2.13
2019-02-10T13:10:11.168Z,2.30
2019-02-10T13:12:36.070Z,2.20
2019-02-10T13:14:56.828Z,1.83
2019-02-10T13:17:04.549Z,1.87
2019-02-10T13:19:26.747Z,1.47
2019-02-10T13:21:31.341Z,1.90
2019-02-10T13:24:07.212Z,2.10
2019-02-10T13:26:21.532Z,2.00
2019-02-10T13:28:44.882Z,2.07
2019-02-10T13:31:01.293Z,2.03
2019-02-10T13:35:29.199Z,2.10
2019-02-10T13:40:22.830Z,1.43
2019-02-10T13:42:42.048Z,1.87
2019-02-10T13:47:51.588Z,1.50
2019-02-10T13:52:24.720Z,1.70
2019-02-10T13:54:42.827Z,1.50
2019-02-10T13:57:02.854Z,1.60
2019-02-10T13:59:24.819Z,1.13
2019-02-10T14:01:40.296Z,1.17
2019-02-10T14:03:58.197Z,1.20
2019-02-10T14:06:14.954Z,1.00
2019-02-10T14:08:50.744Z,1.00
2019-02-10T14:10:54.567Z,1.07
2019-02-10T14:13:12.028Z,1.00
2019-02-10T14:15:28.585Z,0.97
2019-02-10T14:17:47.774Z,0.90
2019-02-10T14:20:08.184Z,0.90
2019-02-10T14:22:21.654Z,1.00
2019-02-10T14:24:38.270Z,0.80
2019-02-10T14:27:00.048Z,0.80
2019-02-10T14:29:16.626Z,0.90
2019-02-10T14:31:47.797Z,0.97
2019-02-10T14:34:07.049Z,0.60
2019-02-10T14:36:23.790Z,0.40
2019-02-10T14:38:41.151Z,0.53
2019-02-10T14:40:59.594Z,0.40
2019-02-10T14:43:15.212Z,0.70
2019-02-10T14:45:37.268Z,0.50
2019-02-10T14:47:53.226Z,0.50
2019-02-10T14:50:11.486Z,0.60
2019-02-10T14:52:29.690Z,0.20
2019-02-10T14:57:27.298Z,0.50
2019-02-10T14:59:45.308Z,0.50
2019-02-10T15:02:03.477Z,0.70
2019-02-10T15:04:21.113Z,0.60
2019-02-10T15:06:42.043Z,0.60
2019-02-10T15:09:00.712Z,0.43
2019-02-10T15:11:21.793Z,0.37
2019-02-10T15:13:37.842Z,0.30
2019-02-10T15:15:53.863Z,0.47
2019-02-10T15:18:11.396Z,0.50
2019-02-10T15:20:27.591Z,0.40
2019-02-10T15:25:25.068Z,0.43
2019-02-10T15:27:43.240Z,0.60
2019-02-10T15:30:01.440Z,0.60
2019-02-10T15:32:24.156Z,0.70
2019-02-10T15:34:47.709Z,0.60
2019-02-10T15:37:07.035Z,0.87
2019-02-10T15:39:23.664Z,0.40
2019-02-10T15:41:39.668Z,0.63
2019-02-10T15:44:03.077Z,0.50
2019-02-10T15:46:29.595Z,0.60
2019-02-10T15:48:46.176Z,0.30
2019-02-10T15:50:51.162Z,0.53
2019-02-10T15:53:09.768Z,0.60
2019-02-10T15:55:29.179Z,0.40
2019-02-10T15:57:45.744Z,0.57
2019-02-10T16:00:02.518Z,0.33
2019-02-10T16:02:18.866Z,0.53
2019-02-10T16:04:35.128Z,0.40
2019-02-10T16:06:52.861Z,0.50
2019-02-10T16:09:16.809Z,0.40
2019-02-10T16:11:40.472Z,0.40
2019-02-10T16:14:05.805Z,0.50
2019-02-10T16:16:41.716Z,0.70
2019-02-10T16:18:59.747Z,0.30
2019-02-10T16:21:39.046Z,0.20
2019-02-10T16:26:33.439Z,0.50
2019-02-10T16:28:55.770Z,0.63
2019-02-10T16:31:19.987Z,1.13
2019-02-10T16:33:39.975Z,0.50
2019-02-10T16:36:00.187Z,0.87
2019-02-10T16:38:16.467Z,0.60
2019-02-10T16:40:32.694Z,0.90
2019-02-10T16:42:52.054Z,0.50
2019-02-10T16:45:15.769Z,0.50
2019-02-10T16:47:33.232Z,0.60
2019-02-10T16:50:07.845Z,0.60
2019-02-10T16:52:24.651Z,0.50
2019-02-10T16:54:45.916Z,0.40
2019-02-10T16:57:02.055Z,0.60
2019-02-10T16:59:20.552Z,0.40
2019-02-10T17:01:39.291Z,0.60
2019-02-10T17:07:05.869Z,0.50
2019-02-10T17:09:29.474Z,0.40
2019-02-10T17:12:04.178Z,0.50
2019-02-10T17:14:22.230Z,0.60
2019-02-10T17:16:40.950Z,0.50
2019-02-10T17:19:06.047Z,0.60
2019-02-10T17:21:29.867Z,0.40
2019-02-10T17:23:51.359Z,0.40
2019-02-10T17:26:09.885Z,0.40
2019-02-10T17:28:26.881Z,0.60
2019-02-10T17:30:44.575Z,0.50
2019-02-10T17:33:07.641Z,0.50
2019-02-10T17:35:25.223Z,0.60
2019-02-10T17:37:43.636Z,0.60
2019-02-10T17:40:02.088Z,0.40
2019-02-10T17:42:37.043Z,0.40
2019-02-10T17:45:21.862Z,0.40
2019-02-10T17:47:38.305Z,0.60
2019-02-10T17:50:04.030Z,0.30
2019-02-10T17:52:31.810Z,0.50
2019-02-10T17:54:48.529Z,0.40
2019-02-10T17:57:06.322Z,0.37
2019-02-10T17:59:24.882Z,0.30
2019-02-10T18:04:17.883Z,0.83
2019-02-10T18:06:34.435Z,0.53
2019-02-10T18:08:53.796Z,0.57
2019-02-10T18:11:14.815Z,0.60
2019-02-10T18:16:22.666Z,0.93
2019-02-10T18:18:57.591Z,0.60
2019-02-10T18:21:37.108Z,0.70
2019-02-10T18:24:12.123Z,0.60
2019-02-10T18:26:52.045Z,0.50
2019-02-10T18:29:22.105Z,0.53
2019-02-10T18:31:57.045Z,0.50
2019-02-10T18:34:34.589Z,0.50
2019-02-10T18:37:26.633Z,0.60
2019-02-10T18:46:04.200Z,0.80
2019-02-10T18:48:42.487Z,0.77
2019-02-10T18:53:33.543Z,0.60
2019-02-10T18:56:10.695Z,0.60
2019-02-10T18:58:53.995Z,0.90
2019-02-10T19:03:52.572Z,0.60
2019-02-10T19:09:16.190Z,0.60
2019-02-10T19:14:44.285Z,0.70
2019-02-10T19:17:06.907Z,0.50
2019-02-10T19:19:49.422Z,0.80
2019-02-10T19:22:26.959Z,0.83
2019-02-10T19:24:40.910Z,0.60
2019-02-10T19:27:26.283Z,0.60
2019-02-10T19:30:04.309Z,0.57
2019-02-10T19:32:33.855Z,0.70
2019-02-10T19:34:57.220Z,0.53
2019-02-10T19:37:42.952Z,0.63
2019-02-10T19:40:39.984Z,0.60
2019-02-10T19:43:09.926Z,0.43
2019-02-10T19:45:44.774Z,0.60
2019-02-10T19:48:20.257Z,0.70
2019-02-10T19:51:01.294Z,0.60
2019-02-10T19:56:23.912Z,0.50
2019-02-10T19:59:07.017Z,0.60
2019-02-10T20:04:32.175Z,0.63
2019-02-10T20:07:01.530Z,0.73
2019-02-10T20:09:57.539Z,0.50
2019-02-10T20:12:22.553Z,0.60
2019-02-10T20:14:44.010Z,0.77
2019-02-10T20:19:57.488Z,0.50
2019-02-10T20:22:39.971Z,0.70
2019-02-10T20:25:24.895Z,0.90
2019-02-10T20:28:03.057Z,0.60
2019-02-10T20:30:38.296Z,0.70
2019-02-10T20:33:13.792Z,0.80
2019-02-10T20:35:55.552Z,0.50
2019-02-10T20:38:30.788Z,0.60
2019-02-10T20:46:47.596Z,0.70
2019-02-10T20:49:48.618Z,0.57
2019-02-10T20:52:14.282Z,0.60
2019-02-10T20:54:36.811Z,0.93
2019-02-10T20:57:03.388Z,0.80
2019-02-10T20:59:45.896Z,0.67
2019-02-10T21:02:17.139Z,0.70
2019-02-10T21:04:49.960Z,0.80
2019-02-10T21:07:44.703Z,0.80
2019-02-10T21:09:59.158Z,0.70
2019-02-10T21:12:41.735Z,1.00
2019-02-10T21:15:13.930Z,0.60
2019-02-10T21:17:37.565Z,0.90
2019-02-10T21:20:15.632Z,0.90
2019-02-10T21:22:50.353Z,0.80
2019-02-10T21:25:35.694Z,1.00
2019-02-10T21:28:37.264Z,0.70
2019-02-10T21:31:03.446Z,1.00
2019-02-10T21:35:52.285Z,0.67
2019-02-10T21:38:16.047Z,0.80
2019-02-10T21:40:50.796Z,0.70
2019-02-10T21:43:18.428Z,0.67
2019-02-10T21:46:05.539Z,0.70
2019-02-10T21:50:51.688Z,0.60
2019-02-10T21:53:07.806Z,0.57
2019-02-10T21:55:45.631Z,0.57
2019-02-10T21:58:30.124Z,0.40
2019-02-10T22:00:39.466Z,0.57
2019-02-10T22:03:23.597Z,0.60
2019-02-10T22:05:40.130Z,0.50
2019-02-10T22:10:41.827Z,0.50
2019-02-10T22:13:08.100Z,0.60
2019-02-10T22:15:25.346Z,0.40
2019-02-10T22:17:41.340Z,0.40
2019-02-10T22:19:58.960Z,0.60
2019-02-10T22:22:15.276Z,0.47
2019-02-10T22:24:35.773Z,0.60
2019-02-10T22:26:55.242Z,0.53
2019-02-10T22:29:11.868Z,0.60
2019-02-10T22:31:18.831Z,0.50
2019-02-10T22:36:35.783Z,0.40
2019-02-10T22:38:53.587Z,0.50
2019-02-10T22:41:10.209Z,0.37
2019-02-10T22:43:26.637Z,0.40
2019-02-10T22:48:05.978Z,0.50
2019-02-10T22:50:24.515Z,0.50
2019-02-10T22:52:48.387Z,0.40
2019-02-10T22:55:04.320Z,0.50
2019-02-10T22:57:20.813Z,0.50
2019-02-10T22:59:37.200Z,0.40
2019-02-10T23:01:53.836Z,0.33
2019-02-10T23:03:59.630Z,0.40
2019-02-10T23:06:26.130Z,0.50
2019-02-10T23:11:39.276Z,0.30
2019-02-10T23:13:52.407Z,0.30
2019-02-10T23:16:12.935Z,0.50
2019-02-10T23:18:30.194Z,0.47
2019-02-10T23:20:48.774Z,0.40
2019-02-10T23:23:04.975Z,0.40
2019-02-10T23:25:21.314Z,0.40
2019-02-10T23:27:43.613Z,0.30
2019-02-10T23:30:00.254Z,0.43
2019-02-10T23:32:24.005Z,0.40
2019-02-10T23:34:49.256Z,0.30
2019-02-10T23:37:05.189Z,0.30
2019-02-10T23:39:41.351Z,0.50
2019-02-10T23:41:47.009Z,0.40
2019-02-10T23:44:03.680Z,0.40
2019-02-10T23:46:20.201Z,0.40
2019-02-10T23:48:36.906Z,0.40
2019-02-10T23:50:53.565Z,0.40
2019-02-10T23:53:29.361Z,0.30
2019-02-10T23:55:26.096Z,0.50
2019-02-10T23:57:43.102Z,0.40
2019-02-10T23:59:59.451Z,0.40
